Janet — 9HSL8 — position and weather

sailwx.info

Track history (hours):
 
Tides and Currents Weather Stations Pressure Air Temp Water Temp Dewpoint Dewpoint Depression Visibility Wind Speed Wind Dir Waves Ship Positions

Janet

Last reported at 2014-Nov-14 12:32 UTC. Time now 2014-Nov-22 10:36 UTC.
Position N 54°24' W 005°19'.

Length 90 m; draft 6.4 m.

Type: Cargo ship. MMSI: 256371000.

Date/timePositionNaut miles runAvg speedWind from/ knotsBaromVisibWave heightAir tempDewpointWater temp
2014-Nov-14 12:32N 54°24' W 005°19'8 8.2
2014-Nov-14 11:31N 54°32' W 005°22'8 8.7
2014-Nov-14 10:33N 54°39' W 005°28'7 7.5
2014-Nov-14 09:34N 54°42' W 005°40'  
2014-Nov-06 23:33N 54°41' W 005°48'5 5.2
2014-Nov-06 22:33N 54°43' W 005°39'4 3.7
2014-Nov-06 21:33N 54°43' W 005°33'8 7.5
2014-Nov-06 20:32N 54°37' W 005°24'7 7.5
2014-Nov-06 19:33N 54°30' W 005°21'8 7.6
2014-Nov-06 18:33N 54°23' W 005°19'  
Track history (hours):
 
Tides and Currents Weather Stations Pressure Air Temp Water Temp Dewpoint Dewpoint Depression Visibility Wind Speed Wind Dir Waves Ship Positions

Janet

Last reported at 2014-Nov-14 12:32 UTC. Time now 2014-Nov-22 10:36 UTC.
Position N 54°24' W 005°19'.

Length 90 m; draft 6.4 m.

Type: Cargo ship. MMSI: 256371000.

Date/timePositionNaut miles runAvg speedWind from/ knotsBaromVisibWave heightAir tempDewpointWater temp
2014-Nov-14 12:32N 54°24' W 005°19'8 8.2
2014-Nov-14 11:31N 54°32' W 005°22'8 8.7
2014-Nov-14 10:33N 54°39' W 005°28'7 7.5
2014-Nov-14 09:34N 54°42' W 005°40'  
2014-Nov-06 23:33N 54°41' W 005°48'5 5.2
2014-Nov-06 22:33N 54°43' W 005°39'4 3.7
2014-Nov-06 21:33N 54°43' W 005°33'8 7.5
2014-Nov-06 20:32N 54°37' W 005°24'7 7.5
2014-Nov-06 19:33N 54°30' W 005°21'8 7.6
2014-Nov-06 18:33N 54°23' W 005°19'  

Dump ship's entire track history